Time;durP1;ratioP1;P1;durP2;ratioP2;P2;SDS_P1;SDS_P2;PMS_P1;PMS_P2;Temp;Humidity;BMP_temperature;BMP_pressure;BME280_temperature;BME280_humidity;BME280_pressure;Samples;Min_cycle;Max_cycle;Signal;HPM_P1;HPM_P2
2021/11/09 00:01:42;;;;;;;12.23;10.25;;;22.20;99.90;;;;;;5014169;28;20039;-77
2021/11/09 00:04:09;;;;;;;10.23;9.10;;;22.30;99.90;;;;;;5015634;28;20018;-76
2021/11/09 00:06:47;;;;;;;11.90;9.50;;;22.50;99.90;;;;;;5015619;28;20056;-77
2021/11/09 00:09:18;;;;;;;11.73;7.43;;;22.40;99.90;;;;;;5015490;28;20026;-76
2021/11/09 00:11:45;;;;;;;14.40;7.43;;;22.30;99.90;;;;;;5015517;28;20018;-76
2021/11/09 00:14:13;;;;;;;13.00;8.63;;;22.30;99.90;;;;;;5015533;28;20096;-76
2021/11/09 00:16:40;;;;;;;14.48;9.73;;;22.40;99.90;;;;;;5014102;28;20033;-76
2021/11/09 00:19:07;;;;;;;11.20;8.95;;;22.40;99.90;;;;;;5015200;28;20048;-76
2021/11/09 00:21:35;;;;;;;10.05;8.95;;;22.40;99.90;;;;;;5013995;28;20129;-77
2021/11/09 00:24:03;;;;;;;9.48;8.30;;;22.50;99.90;;;;;;5015851;28;20018;-76
2021/11/09 00:26:31;;;;;;;11.30;8.15;;;22.60;99.90;;;;;;5015223;28;20113;-76
2021/11/09 00:28:59;;;;;;;11.40;7.97;;;23.00;99.90;;;;;;5014006;28;20025;-76
2021/11/09 00:31:26;;;;;;;12.45;7.90;;;23.00;99.90;;;;;;5013490;28;20030;-76
2021/11/09 00:33:53;;;;;;;12.45;8.23;;;22.90;99.90;;;;;;5015069;28;20047;-76
2021/11/09 00:36:23;;;;;;;12.88;7.55;;;23.10;99.90;;;;;;5015090;28;20112;-77
2021/11/09 00:38:51;;;;;;;10.82;7.55;;;23.00;99.90;;;;;;5015266;28;20030;-75
2021/11/09 00:41:18;;;;;;;12.27;7.20;;;23.10;99.90;;;;;;5013142;28;20045;-77
2021/11/09 00:43:45;;;;;;;9.77;6.90;;;23.00;99.90;;;;;;5014470;28;20130;-77
2021/11/09 00:46:13;;;;;;;14.27;7.30;;;23.10;99.90;;;;;;5014989;28;20054;-78
2021/11/09 00:48:40;;;;;;;11.98;7.22;;;23.10;99.90;;;;;;5014838;28;20053;-77
2021/11/09 00:51:07;;;;;;;7.15;6.40;;;23.00;99.90;;;;;;5015121;28;20038;-77
2021/11/09 00:53:35;;;;;;;11.05;7.50;;;23.40;99.90;;;;;;5013526;28;20395;-77
2021/11/09 00:56:03;;;;;;;12.00;6.50;;;23.70;99.90;;;;;;5013010;28;20411;-76
2021/11/09 00:58:30;;;;;;;8.50;6.72;;;24.10;99.90;;;;;;5013273;28;20125;-76
2021/11/09 01:00:57;;;;;;;11.45;6.85;;;24.40;99.90;;;;;;5014433;28;20479;-75
2021/11/09 01:03:25;;;;;;;10.70;5.30;;;24.50;99.90;;;;;;5014467;28;20022;-77
2021/11/09 01:05:52;;;;;;;10.43;5.38;;;24.30;99.90;;;;;;5013193;28;20022;-76
2021/11/09 01:08:19;;;;;;;9.60;5.80;;;24.20;99.90;;;;;;5014280;28;20466;-76
2021/11/09 01:10:50;;;;;;;8.68;5.82;;;24.30;99.90;;;;;;5012978;28;20022;-76
2021/11/09 01:13:19;;;;;;;15.05;5.30;;;24.20;99.90;;;;;;5013465;28;20052;-76
2021/11/09 01:15:50;;;;;;;13.27;5.80;;;24.20;99.90;;;;;;5013227;28;20557;-76
2021/11/09 01:18:31;;;;;;;10.75;6.20;;;24.00;99.90;;;;;;5014786;28;20041;-76
2021/11/09 01:20:59;;;;;;;11.18;5.90;;;23.80;99.90;;;;;;5013439;28;20030;-76
2021/11/09 01:23:27;;;;;;;11.20;5.38;;;23.10;99.90;;;;;;5013166;28;20446;-75
2021/11/09 01:25:55;;;;;;;15.68;6.05;;;22.90;99.90;;;;;;5012953;28;20453;-75
2021/11/09 01:28:22;;;;;;;10.05;5.13;;;22.70;99.90;;;;;;5013254;28;20025;-75
2021/11/09 01:30:51;;;;;;;8.63;5.45;;;22.60;99.90;;;;;;5014329;28;20123;-76
2021/11/09 01:33:19;;;;;;;10.15;5.28;;;22.50;99.90;;;;;;4996973;28;20037;-77
2021/11/09 01:35:48;;;;;;;11.18;5.80;;;22.40;99.90;;;;;;5013319;28;20438;-76
2021/11/09 01:38:16;;;;;;;10.98;5.43;;;22.50;99.90;;;;;;5013920;28;20498;-76
2021/11/09 01:40:44;;;;;;;9.02;5.97;;;22.30;99.90;;;;;;5014166;28;20076;-76
2021/11/09 01:43:13;;;;;;;11.77;7.00;;;22.50;99.90;;;;;;5012888;28;20045;-76
2021/11/09 01:45:48;;;;;;;13.55;7.25;;;22.70;99.90;;;;;;5014192;28;20018;-77
2021/11/09 01:48:16;;;;;;;13.68;6.10;;;23.00;99.90;;;;;;5014184;28;20022;-76
2021/11/09 01:50:47;;;;;;;12.57;5.93;;;23.00;99.90;;;;;;5012135;28;20030;-75
2021/11/09 01:53:15;;;;;;;11.05;6.15;;;23.20;99.90;;;;;;5014236;28;20064;-76
2021/11/09 01:55:43;;;;;;;15.18;6.03;;;23.70;99.90;;;;;;5013952;28;20117;-75
2021/11/09 01:58:12;;;;;;;10.65;5.80;;;24.00;99.90;;;;;;5014262;28;20471;-75
2021/11/09 02:00:46;;;;;;;9.43;6.70;;;23.60;99.90;;;;;;5014106;28;20076;-77
2021/11/09 02:03:14;;;;;;;13.57;6.25;;;23.90;99.90;;;;;;5012797;28;20028;-76
2021/11/09 02:05:42;;;;;;;10.07;5.32;;;23.90;99.90;;;;;;5013934;28;20498;-76
2021/11/09 02:08:10;;;;;;;10.23;6.97;;;24.20;99.90;;;;;;5012559;28;20033;-76
2021/11/09 02:10:40;;;;;;;11.75;6.80;;;24.70;99.90;;;;;;5013802;28;20026;-76
2021/11/09 02:13:09;;;;;;;17.25;6.38;;;24.80;99.90;;;;;;5014794;28;20030;-74
2021/11/09 02:15:38;;;;;;;11.15;6.00;;;24.80;99.90;;;;;;5015855;28;20029;-75
2021/11/09 02:18:08;;;;;;;11.48;6.07;;;24.20;99.90;;;;;;5015384;28;20502;-76
2021/11/09 02:20:36;;;;;;;12.27;5.10;;;24.20;99.90;;;;;;5017673;28;20464;-77
2021/11/09 02:23:05;;;;;;;12.27;5.45;;;24.60;99.90;;;;;;5017444;28;20101;-77
2021/11/09 02:25:34;;;;;;;10.65;5.43;;;25.00;99.90;;;;;;5016086;28;20022;-76
2021/11/09 02:28:03;;;;;;;8.52;5.50;;;25.00;99.90;;;;;;5016674;28;20156;-76
2021/11/09 02:30:31;;;;;;;9.67;5.60;;;25.00;99.90;;;;;;5017214;28;20029;-76
2021/11/09 02:33:00;;;;;;;11.38;5.82;;;24.70;99.90;;;;;;5016339;28;20675;-75
2021/11/09 02:35:28;;;;;;;11.50;4.80;;;25.30;99.90;;;;;;5017171;28;20478;-77
2021/11/09 02:37:58;;;;;;;8.93;5.30;;;25.80;99.90;;;;;;5016099;28;20033;-74
2021/11/09 02:40:25;;;;;;;;;;;26.00;99.90;;;;;;5016174;28;20033;-74
2021/11/09 02:42:57;;;;;;;9.73;5.03;;;26.10;99.90;;;;;;5016989;28;19996;-76
2021/11/09 02:45:49;;;;;;;10.00;4.93;;;26.10;99.90;;;;;;5016864;28;20018;-75
2021/11/09 02:48:20;;;;;;;9.55;5.30;;;26.30;99.90;;;;;;5016684;28;20487;-75
2021/11/09 02:50:54;;;;;;;9.80;5.13;;;26.20;99.90;;;;;;5017244;28;20065;-77
2021/11/09 02:56:00;;;;;;;9.18;4.70;;;26.30;99.90;;;;;;5016709;28;20044;-76
2021/11/09 03:01:14;;;;;;;8.32;4.82;;;26.70;99.90;;;;;;5016443;28;20025;-77
2021/11/09 03:11:25;;;;;;;6.75;3.95;;;26.80;99.90;;;;;;5016332;28;20029;-75
2021/11/09 03:14:03;;;;;;;8.95;4.90;;;26.80;99.90;;;;;;5016452;28;20033;-77
2021/11/09 03:16:34;;;;;;;9.80;4.50;;;27.20;99.90;;;;;;4998619;28;20083;-76
2021/11/09 03:46:51;;;;;;;9.95;4.30;;;25.50;99.90;;;;;;5015211;28;20462;-78
2021/11/09 03:49:21;;;;;;;11.73;4.45;;;26.00;99.90;;;;;;5016083;28;20068;-78
2021/11/09 03:51:49;;;;;;;7.38;4.95;;;26.70;99.90;;;;;;5014521;28;20022;-77
2021/11/09 03:54:18;;;;;;;9.80;4.40;;;26.30;99.90;;;;;;5014624;28;20062;-78
2021/11/09 03:56:51;;;;;;;7.28;3.85;;;26.30;99.90;;;;;;5014092;28;20110;-77
2021/11/09 03:59:35;;;;;;;7.80;4.35;;;26.10;99.90;;;;;;5015798;28;20029;-77
2021/11/09 04:02:17;;;;;;;9.70;4.65;;;26.50;99.90;;;;;;5015937;28;20022;-77
2021/11/09 04:04:53;;;;;;;8.82;3.78;;;26.60;99.90;;;;;;5014642;28;20061;-77
2021/11/09 04:12:46;;;;;;;8.63;5.05;;;25.00;99.90;;;;;;5016208;28;20391;-77
2021/11/09 04:18:14;;;;;;;8.55;4.20;;;25.40;99.90;;;;;;5015033;28;20086;-78
2021/11/09 04:20:52;;;;;;;12.27;4.47;;;24.90;99.90;;;;;;5015930;28;20101;-78
2021/11/09 04:26:03;;;;;;;7.13;3.78;;;25.40;99.90;;;;;;5015042;28;20057;-77
2021/11/09 04:31:30;;;;;;;8.30;4.22;;;25.90;99.90;;;;;;5015722;28;20080;-76
2021/11/09 04:34:36;;;;;;;12.07;4.55;;;26.40;99.90;;;;;;5015059;28;20045;-78
2021/11/09 04:43:52;;;;;;;9.57;4.53;;;25.90;99.90;;;;;;5015235;28;20033;-78
2021/11/09 04:53:46;;;;;;;8.73;3.80;;;26.10;99.90;;;;;;5015302;28;20049;-78
2021/11/09 05:10:20;;;;;;;7.38;3.95;;;26.10;99.90;;;;;;5014805;28;20041;-78
2021/11/09 05:12:47;;;;;;;6.55;3.60;;;26.00;99.90;;;;;;5014617;28;20403;-78
2021/11/09 05:15:15;;;;;;;8.35;3.78;;;25.90;99.90;;;;;;5013242;28;20026;-78
2021/11/09 05:17:42;;;;;;;6.95;4.00;;;25.90;99.90;;;;;;5012877;28;20037;-78
2021/11/09 05:20:10;;;;;;;7.28;3.75;;;25.70;99.90;;;;;;5013381;28;20053;-77
2021/11/09 05:22:38;;;;;;;10.43;4.05;;;25.90;99.90;;;;;;5013051;28;20029;-78
2021/11/09 05:25:06;;;;;;;8.57;3.50;;;25.90;99.90;;;;;;5014980;28;20034;-78
2021/11/09 05:27:34;;;;;;;5.75;3.42;;;25.70;99.90;;;;;;5013493;28;20030;-78
2021/11/09 05:30:01;;;;;;;9.32;4.03;;;25.80;99.90;;;;;;5014615;28;20022;-78
2021/11/09 05:32:28;;;;;;;9.52;4.13;;;25.80;99.90;;;;;;5014543;28;20037;-78
2021/11/09 05:34:56;;;;;;;8.88;4.00;;;25.50;99.90;;;;;;5014471;28;20032;-79
2021/11/09 05:37:29;;;;;;;7.70;4.03;;;25.90;99.90;;;;;;5013143;28;20030;-79
2021/11/09 05:40:00;;;;;;;5.75;3.75;;;26.10;99.90;;;;;;5014310;28;20018;-76
2021/11/09 05:42:27;;;;;;;;;;;25.90;99.90;;;;;;5014494;28;20056;-78
2021/11/09 05:44:54;;;;;;;9.88;3.92;;;25.60;99.90;;;;;;5012920;28;19916;-77
2021/11/09 05:47:21;;;;;;;7.32;3.60;;;25.40;99.90;;;;;;5013273;28;20111;-77
2021/11/09 05:49:49;;;;;;;8.05;3.53;;;25.50;99.90;;;;;;5018160;28;20026;-77
2021/11/09 05:52:17;;;;;;;7.97;3.92;;;25.80;99.90;;;;;;5018094;28;20475;-77
2021/11/09 05:54:44;;;;;;;8.00;3.55;;;25.90;99.90;;;;;;5018373;28;20072;-79
2021/11/09 05:57:12;;;;;;;6.03;3.40;;;26.10;99.90;;;;;;5016346;28;20057;-78
2021/11/09 05:59:40;;;;;;;5.15;2.90;;;26.10;99.90;;;;;;5016867;28;20060;-78
2021/11/09 06:02:07;;;;;;;5.63;3.05;;;26.10;99.90;;;;;;5017428;28;20030;-79
2021/11/09 06:04:35;;;;;;;6.68;3.10;;;25.80;99.90;;;;;;5016654;28;20056;-79
2021/11/09 06:07:03;;;;;;;6.43;3.00;;;25.50;99.90;;;;;;5018392;28;20438;-78
2021/11/09 06:09:31;;;;;;;7.00;3.00;;;25.30;99.90;;;;;;5017131;28;20021;-78
2021/11/09 06:11:58;;;;;;;8.50;3.67;;;25.00;99.90;;;;;;5017117;28;20080;-79
2021/11/09 06:14:27;;;;;;;5.95;3.03;;;25.30;99.90;;;;;;5017509;28;20022;-78
2021/11/09 06:16:55;;;;;;;5.63;3.03;;;25.40;99.90;;;;;;5018878;28;20463;-80
2021/11/09 06:19:25;;;;;;;4.20;2.50;;;25.40;99.90;;;;;;5020112;28;20065;-79
2021/11/09 06:21:53;;;;;;;4.60;2.30;;;25.70;99.90;;;;;;5018494;28;20513;-79
2021/11/09 06:24:22;;;;;;;6.30;2.60;;;26.00;99.90;;;;;;5018364;28;20022;-79
2021/11/09 06:26:52;;;;;;;3.88;2.38;;;26.40;99.90;;;;;;5018704;28;20097;-79
2021/11/09 06:29:20;;;;;;;5.80;2.33;;;26.40;99.90;;;;;;5017704;28;20033;-79
2021/11/09 06:31:49;;;;;;;4.93;2.72;;;26.30;99.90;;;;;;5019590;28;20112;-79
2021/11/09 06:34:18;;;;;;;5.03;2.75;;;26.30;99.90;;;;;;5019252;28;20022;-78
2021/11/09 06:36:46;;;;;;;2.95;2.20;;;25.80;99.90;;;;;;5018268;28;20033;-78
2021/11/09 06:39:14;;;;;;;4.60;2.60;;;25.30;99.90;;;;;;5019599;28;20033;-78
2021/11/09 06:41:42;;;;;;;4.30;2.47;;;25.20;99.90;;;;;;5001856;28;20033;-78
2021/11/09 06:44:13;;;;;;;4.03;2.92;;;25.40;99.90;;;;;;5017321;28;20026;-79
2021/11/09 06:46:41;;;;;;;6.03;2.90;;;25.70;99.90;;;;;;5019309;28;20022;-79
2021/11/09 06:49:09;;;;;;;4.30;2.80;;;25.80;99.90;;;;;;4999742;28;20132;-78
2021/11/09 06:51:37;;;;;;;5.10;3.10;;;25.60;99.90;;;;;;5015867;28;20042;-77
2021/11/09 06:54:04;;;;;;;5.35;2.80;;;25.50;99.90;;;;;;5016998;28;20105;-78
2021/11/09 06:56:32;;;;;;;6.95;3.20;;;25.40;99.90;;;;;;5016551;28;20042;-78
2021/11/09 06:59:00;;;;;;;3.72;2.83;;;25.50;99.90;;;;;;5016969;28;20082;-76
2021/11/09 07:01:28;;;;;;;4.40;2.85;;;25.50;99.90;;;;;;4999828;28;20037;-77
2021/11/09 07:03:55;;;;;;;4.47;3.00;;;24.40;99.90;;;;;;5016329;28;20102;-78
2021/11/09 07:06:24;;;;;;;4.97;3.03;;;24.00;99.90;;;;;;5016004;28;20022;-76
2021/11/09 07:08:53;;;;;;;7.60;3.50;;;23.60;99.90;;;;;;5015178;28;20493;-77
2021/11/09 07:11:21;;;;;;;5.35;3.45;;;23.20;99.90;;;;;;5014001;28;20475;-77
2021/11/09 07:13:51;;;;;;;3.65;3.25;;;23.10;99.90;;;;;;5015369;28;20030;-77
2021/11/09 07:16:19;;;;;;;6.65;3.63;;;22.90;99.90;;;;;;5013795;28;20034;-76
2021/11/09 07:18:46;;;;;;;8.40;4.53;;;22.80;99.90;;;;;;5015503;28;20120;-77
2021/11/09 07:21:14;;;;;;;3.88;3.45;;;22.70;99.90;;;;;;5015158;28;20022;-76
2021/11/09 07:23:41;;;;;;;4.22;3.85;;;22.60;99.90;;;;;;5015061;28;20021;-77
2021/11/09 07:26:08;;;;;;;6.63;4.07;;;22.50;99.90;;;;;;5015255;28;20068;-77
2021/11/09 07:28:36;;;;;;;5.35;3.90;;;22.40;99.90;;;;;;5014931;28;20115;-77
2021/11/09 07:31:04;;;;;;;4.45;3.92;;;22.20;99.90;;;;;;5013627;28;20076;-78
2021/11/09 07:33:32;;;;;;;5.13;4.07;;;22.00;99.90;;;;;;5015117;28;20022;-78
2021/11/09 07:36:00;;;;;;;7.03;4.30;;;22.00;99.90;;;;;;5014854;28;20025;-78
2021/11/09 07:38:28;;;;;;;6.78;4.50;;;21.80;99.90;;;;;;5013480;28;20034;-81
2021/11/09 07:40:55;;;;;;;7.60;6.15;;;21.70;99.90;;;;;;5014783;28;20396;-77
2021/11/09 07:43:23;;;;;;;5.97;4.80;;;21.70;99.90;;;;;;5014343;28;20026;-77
2021/11/09 07:45:50;;;;;;;5.70;5.30;;;21.50;99.90;;;;;;5013130;28;20113;-78
2021/11/09 07:48:17;;;;;;;7.28;6.18;;;21.40;99.90;;;;;;5014440;28;20065;-78
2021/11/09 07:50:45;;;;;;;6.40;5.93;;;21.20;99.90;;;;;;5014442;28;20022;-77
2021/11/09 07:53:15;;;;;;;7.18;6.47;;;21.20;99.90;;;;;;5014858;28;20028;-78
2021/11/09 07:56:05;;;;;;;7.07;6.00;;;21.00;99.90;;;;;;5014159;28;20052;-78
2021/11/09 07:58:57;;;;;;;5.97;5.43;;;21.00;99.90;;;;;;5014019;28;20034;-78
2021/11/09 08:01:21;;;;;;;6.50;6.00;;;20.90;99.90;;;;;;5013827;28;20049;-78
2021/11/09 08:09:36;;;;;;;8.27;7.43;;;20.60;99.90;;;;;;5012941;28;20037;-79
2021/11/09 08:12:05;;;;;;;8.45;8.00;;;20.50;99.90;;;;;;5013532;28;20032;-78
2021/11/09 08:14:34;;;;;;;8.95;8.35;;;20.50;99.90;;;;;;5012858;28;20018;-78
2021/11/09 08:17:03;;;;;;;9.00;8.40;;;20.40;99.90;;;;;;5013924;28;20026;-78
2021/11/09 08:19:30;;;;;;;10.30;9.40;;;20.40;99.90;;;;;;5014452;28;20053;-78
2021/11/09 08:21:58;;;;;;;10.02;9.35;;;20.40;99.90;;;;;;5013429;28;20120;-78
2021/11/09 08:24:27;;;;;;;10.00;9.38;;;20.30;99.90;;;;;;5013543;28;20026;-78
2021/11/09 08:26:57;;;;;;;10.05;9.45;;;20.30;99.90;;;;;;5012419;28;20487;-78
2021/11/09 08:29:26;;;;;;;10.98;10.05;;;20.20;99.90;;;;;;5012837;28;20376;-78
2021/11/09 08:31:56;;;;;;;10.60;10.10;;;20.20;99.90;;;;;;5012712;28;20035;-77
2021/11/09 08:34:27;;;;;;;10.93;10.15;;;20.10;99.90;;;;;;5013696;28;20443;-78
2021/11/09 08:36:56;;;;;;;11.32;10.50;;;20.10;99.90;;;;;;5013628;28;20042;-77
2021/11/09 08:39:32;;;;;;;11.10;10.40;;;20.10;99.90;;;;;;5013784;28;20061;-77
2021/11/09 08:44:42;;;;;;;11.90;11.05;;;20.00;99.90;;;;;;5013824;28;20144;-75
2021/11/09 08:47:12;;;;;;;11.90;11.13;;;19.90;99.90;;;;;;5013781;28;20021;-75
2021/11/09 08:49:39;;;;;;;12.05;11.20;;;19.90;99.90;;;;;;5013616;28;20072;-78
2021/11/09 08:52:12;;;;;;;12.45;11.50;;;19.90;99.90;;;;;;5012339;28;20123;-77
2021/11/09 08:55:31;;;;;;;11.93;11.32;;;19.90;99.90;;;;;;5012409;28;20513;-77
2021/11/09 09:05:28;;;;;;;13.13;12.13;;;19.70;99.90;;;;;;5013355;28;20578;-75
2021/11/09 09:07:55;;;;;;;13.35;12.43;;;19.70;99.90;;;;;;5013403;28;20029;-74
2021/11/09 09:10:23;;;;;;;13.40;12.43;;;19.70;99.90;;;;;;5013408;28;20022;-74
2021/11/09 09:12:50;;;;;;;12.77;12.10;;;19.70;99.90;;;;;;5013469;28;20504;-75
2021/11/09 09:15:19;;;;;;;13.60;12.35;;;19.70;99.90;;;;;;5013412;28;20538;-75
2021/11/09 09:17:46;;;;;;;13.90;12.75;;;19.70;99.90;;;;;;5013270;28;20444;-75
2021/11/09 09:20:26;;;;;;;13.25;12.45;;;19.70;99.90;;;;;;5011945;28;20032;-74
2021/11/09 09:55:40;;;;;;;13.15;12.40;;;19.40;99.90;;;;;;5016876;28;20045;-75
2021/11/09 09:58:13;;;;;;;13.05;12.35;;;19.40;99.90;;;;;;5015478;28;20044;-74
2021/11/09 10:00:42;;;;;;;13.75;12.93;;;19.40;99.90;;;;;;5015453;28;20029;-75
2021/11/09 10:03:10;;;;;;;13.57;12.90;;;19.40;99.90;;;;;;5016611;28;20022;-74
2021/11/09 10:05:42;;;;;;;13.30;12.52;;;19.30;99.90;;;;;;5016579;28;20367;-74
2021/11/09 10:08:19;;;;;;;14.20;13.05;;;19.30;99.90;;;;;;5016700;28;20049;-74
2021/11/09 10:10:48;;;;;;;13.57;12.68;;;19.30;99.90;;;;;;5015267;28;20030;-74
2021/11/09 10:13:23;;;;;;;13.40;12.40;;;19.30;99.90;;;;;;5016547;28;20029;-75
2021/11/09 10:15:54;;;;;;;14.25;13.25;;;19.30;99.90;;;;;;5016295;28;20045;-74
2021/11/09 10:18:23;;;;;;;13.65;13.05;;;19.30;99.90;;;;;;4999114;28;20547;-74
2021/11/09 10:20:57;;;;;;;14.67;13.80;;;19.30;99.90;;;;;;5015125;28;20026;-75
2021/11/09 10:23:30;;;;;;;14.05;13.25;;;19.30;99.90;;;;;;5016456;28;20018;-74
2021/11/09 10:26:11;;;;;;;14.25;13.25;;;19.30;99.90;;;;;;5014939;28;20395;-74
2021/11/09 10:28:37;;;;;;;;;;;19.30;99.90;;;;;;5016823;28;20026;-74
2021/11/09 10:31:08;;;;;;;14.02;13.13;;;19.30;99.90;;;;;;5014922;28;19952;-75
2021/11/09 10:33:39;;;;;;;13.65;12.63;;;19.30;99.90;;;;;;5014182;28;20434;-75
2021/11/09 10:36:29;;;;;;;13.43;12.57;;;19.30;99.90;;;;;;5016192;28;20453;-75
2021/11/09 10:39:18;;;;;;;13.85;12.85;;;19.20;99.90;;;;;;5014869;28;20026;-74
2021/11/09 10:42:13;;;;;;;13.73;13.00;;;19.20;99.90;;;;;;5016237;28;20408;-75
2021/11/09 10:44:42;;;;;;;14.25;13.25;;;19.20;99.90;;;;;;5014472;28;20058;-75
2021/11/09 10:47:23;;;;;;;14.02;13.20;;;19.20;99.90;;;;;;5015906;28;20022;-75
2021/11/09 10:50:00;;;;;;;14.32;13.60;;;19.20;99.90;;;;;;5015789;28;20030;-75
2021/11/09 10:52:36;;;;;;;14.65;13.75;;;19.20;99.90;;;;;;5015876;28;20060;-75
2021/11/09 10:55:31;;;;;;;15.82;14.80;;;19.20;99.90;;;;;;5015803;28;20441;-74
2021/11/09 10:58:13;;;;;;;15.57;14.77;;;19.20;99.90;;;;;;5015845;28;20034;-74
2021/11/09 11:04:09;;;;;;;16.40;15.15;;;19.40;99.90;;;;;;5015904;28;20026;-74
2021/11/09 11:06:29;;;;;;;15.77;14.68;;;19.40;99.90;;;;;;5008133;28;20030;-74
2021/11/09 11:09:04;;;;;;;15.57;14.65;;;19.40;99.90;;;;;;5015637;28;20022;-74
2021/11/09 11:11:34;;;;;;;15.52;14.35;;;19.40;99.90;;;;;;5014005;28;20520;-73
2021/11/09 11:14:08;;;;;;;15.98;14.63;;;19.40;99.90;;;;;;5014083;28;20017;-74
2021/11/09 11:16:59;;;;;;;15.13;14.15;;;19.40;99.90;;;;;;5015145;28;20083;-74
2021/11/09 11:19:31;;;;;;;16.42;15.00;;;19.50;99.90;;;;;;5015370;28;20482;-74
2021/11/09 11:22:00;;;;;;;15.68;14.60;;;19.50;99.90;;;;;;5015087;28;20056;-74
2021/11/09 11:24:28;;;;;;;15.50;14.50;;;19.50;99.90;;;;;;5014209;28;20510;-74
2021/11/09 11:26:57;;;;;;;15.10;14.20;;;19.40;99.90;;;;;;5013987;28;20522;-74
2021/11/09 11:29:36;;;;;;;16.42;15.30;;;19.50;99.90;;;;;;5014881;28;20018;-74
2021/11/09 11:32:16;;;;;;;15.57;14.68;;;19.50;99.90;;;;;;5014974;28;20026;-74
2021/11/09 11:34:44;;;;;;;15.40;14.30;;;19.60;99.90;;;;;;5014885;28;20034;-74
2021/11/09 11:37:13;;;;;;;15.80;14.60;;;19.60;99.90;;;;;;5013576;28;20180;-74
2021/11/09 11:39:42;;;;;;;15.63;14.38;;;19.60;99.90;;;;;;5013571;28;20032;-74
2021/11/09 11:42:14;;;;;;;14.90;14.05;;;19.60;99.90;;;;;;5013367;28;20053;-74
2021/11/09 11:44:44;;;;;;;15.05;14.05;;;19.60;99.90;;;;;;5014584;28;20033;-74
2021/11/09 11:47:11;;;;;;;15.48;14.48;;;19.60;99.90;;;;;;5014054;28;20121;-74
2021/11/09 11:49:41;;;;;;;14.60;13.70;;;19.60;99.90;;;;;;5013266;28;20032;-74
2021/11/09 11:52:16;;;;;;;14.30;13.60;;;19.70;99.90;;;;;;5013294;28;20021;-73
2021/11/09 11:54:54;;;;;;;14.30;13.30;;;19.70;99.90;;;;;;5014604;28;20044;-74
2021/11/09 11:57:31;;;;;;;14.70;13.75;;;19.70;99.90;;;;;;5012966;28;20050;-74
2021/11/09 11:59:59;;;;;;;14.43;13.23;;;19.80;99.90;;;;;;5013276;28;20026;-74
2021/11/09 12:02:39;;;;;;;14.27;13.27;;;19.80;99.90;;;;;;5014364;28;20030;-73
2021/11/09 12:05:08;;;;;;;14.80;13.63;;;19.80;99.90;;;;;;5014372;28;20018;-74
2021/11/09 12:07:59;;;;;;;14.43;13.52;;;19.80;99.90;;;;;;5014387;28;20442;-73
2021/11/09 12:10:52;;;;;;;14.77;13.98;;;19.80;99.90;;;;;;5014323;28;20076;-75
2021/11/09 12:13:22;;;;;;;14.68;13.68;;;19.80;99.90;;;;;;5014338;28;20022;-74
2021/11/09 12:16:05;;;;;;;15.20;14.20;;;19.80;99.90;;;;;;5014596;28;20018;-74
2021/11/09 12:18:45;;;;;;;14.95;14.00;;;19.90;99.90;;;;;;5012824;28;20026;-74
2021/11/09 12:21:21;;;;;;;15.02;14.02;;;19.90;99.90;;;;;;5012968;28;20487;-74
2021/11/09 12:24:13;;;;;;;14.90;13.80;;;19.90;99.90;;;;;;5014136;28;20026;-74
2021/11/09 12:26:55;;;;;;;15.00;14.10;;;20.00;99.90;;;;;;5014055;28;20502;-74
2021/11/09 12:29:40;;;;;;;16.15;14.73;;;20.00;99.90;;;;;;5014177;28;20479;-74
2021/11/09 12:32:26;;;;;;;15.40;14.10;;;20.00;99.90;;;;;;5014139;28;20471;-75
2021/11/09 12:35:02;;;;;;;15.95;14.68;;;20.00;99.90;;;;;;5012632;28;20060;-74
2021/11/09 12:37:35;;;;;;;16.23;14.80;;;19.90;99.90;;;;;;5012734;28;20022;-75
2021/11/09 12:40:23;;;;;;;14.77;13.77;;;19.80;99.90;;;;;;5012473;28;20026;-74
2021/11/09 12:43:12;;;;;;;15.23;14.30;;;19.70;99.90;;;;;;5012452;28;20105;-75
2021/11/09 12:45:43;;;;;;;16.13;14.77;;;19.50;99.90;;;;;;5013606;28;20525;-73
2021/11/09 12:48:13;;;;;;;16.70;15.40;;;19.50;99.90;;;;;;5013799;28;20022;-73
2021/11/09 12:50:53;;;;;;;16.02;15.10;;;19.40;99.90;;;;;;5012341;28;20026;-73
2021/11/09 12:53:23;;;;;;;15.85;14.98;;;19.30;99.90;;;;;;5013497;28;20438;-74
2021/11/09 12:56:02;;;;;;;15.93;14.85;;;19.30;99.90;;;;;;5011986;28;20129;-73
2021/11/09 12:58:45;;;;;;;16.58;15.35;;;19.30;99.90;;;;;;4995748;28;20045;-73
2021/11/09 13:01:25;;;;;;;15.93;15.02;;;19.20;99.90;;;;;;5012327;28;20080;-74
2021/11/09 13:06:43;;;;;;;16.58;15.40;;;19.10;99.90;;;;;;5013618;28;20029;-74
2021/11/09 13:09:18;;;;;;;16.70;15.25;;;19.10;99.90;;;;;;5013606;28;20022;-74
2021/11/09 13:11:51;;;;;;;17.52;16.20;;;19.10;99.90;;;;;;5012272;28;20080;-74
2021/11/09 13:14:20;;;;;;;18.20;16.63;;;19.10;99.90;;;;;;5012105;28;20053;-74
2021/11/09 13:16:51;;;;;;;18.08;16.70;;;19.20;99.90;;;;;;5011835;28;20094;-74
2021/11/09 13:19:25;;;;;;;18.13;16.80;;;19.20;99.90;;;;;;5012098;28;20026;-74
2021/11/09 13:22:16;;;;;;;18.10;16.67;;;19.20;99.90;;;;;;5012034;28;20018;-74
2021/11/09 13:24:56;;;;;;;18.15;16.77;;;19.30;99.90;;;;;;5013252;28;20030;-75
2021/11/09 13:27:34;;;;;;;18.90;17.60;;;19.30;99.90;;;;;;5012188;28;20029;-75
2021/11/09 13:30:14;;;;;;;19.45;17.83;;;19.30;99.90;;;;;;5013254;28;20040;-74
2021/11/09 13:32:47;;;;;;;19.73;18.10;;;19.40;99.90;;;;;;5013282;28;20030;-74
2021/11/09 13:35:21;;;;;;;19.50;18.00;;;19.40;99.90;;;;;;5011904;28;20399;-74
2021/11/09 13:37:50;;;;;;;19.27;18.08;;;19.40;99.90;;;;;;5013156;28;20022;-73
2021/11/09 13:40:19;;;;;;;18.55;17.25;;;19.50;99.90;;;;;;5013111;28;20080;-74
2021/11/09 13:43:02;;;;;;;19.70;18.30;;;19.50;99.90;;;;;;5013200;28;20029;-74
2021/11/09 13:45:29;;;;;;;19.33;17.92;;;19.50;99.90;;;;;;5013165;28;20026;-73
2021/11/09 13:47:57;;;;;;;19.80;18.33;;;19.40;99.90;;;;;;5011832;28;20033;-74
2021/11/09 13:50:27;;;;;;;19.83;18.33;;;19.40;99.90;;;;;;5011837;28;20032;-75
2021/11/09 13:52:56;;;;;;;19.70;18.50;;;19.20;99.90;;;;;;5011674;28;20475;-74
2021/11/09 13:55:24;;;;;;;19.05;17.75;;;19.40;99.90;;;;;;5012772;28;20026;-73
2021/11/09 13:57:53;;;;;;;19.42;18.25;;;19.50;99.90;;;;;;5011527;28;20093;-74
2021/11/09 14:00:36;;;;;;;19.58;18.23;;;19.50;99.90;;;;;;5012925;28;20029;-74
2021/11/09 14:14:25;;;;;;;20.25;18.90;;;19.40;99.90;;;;;;5016454;28;20400;-73
2021/11/09 14:16:55;;;;;;;21.02;19.65;;;19.40;99.90;;;;;;5016704;28;20033;-73
2021/11/09 14:19:36;;;;;;;20.63;19.40;;;19.40;99.90;;;;;;5015095;28;20095;-74
2021/11/09 14:22:13;;;;;;;;;;;19.40;99.90;;;;;;5016801;28;20360;-73
2021/11/09 14:24:42;;;;;;;20.27;18.98;;;19.40;99.90;;;;;;5016300;28;19905;-73
2021/11/09 14:27:14;;;;;;;21.40;19.88;;;19.40;99.90;;;;;;5016178;28;20030;-73
2021/11/09 14:29:52;;;;;;;21.80;20.08;;;19.40;99.90;;;;;;5014924;28;20540;-73
2021/11/09 14:32:22;;;;;;;21.10;19.92;;;19.40;99.90;;;;;;5016462;28;20071;-73
2021/11/09 14:35:09;;;;;;;21.25;19.83;;;19.40;99.90;;;;;;5014842;28;20030;-73
2021/11/09 14:38:01;;;;;;;21.45;20.10;;;19.40;99.90;;;;;;5014605;28;20030;-74
2021/11/09 14:41:00;;;;;;;21.80;20.60;;;19.40;99.90;;;;;;5016093;28;20109;-74
2021/11/09 14:46:12;;;;;;;21.85;20.35;;;19.40;99.90;;;;;;5015819;28;20048;-75
2021/11/09 14:51:18;;;;;;;22.08;20.67;;;19.40;99.90;;;;;;5015852;28;20026;-74
2021/11/09 14:56:26;;;;;;;22.60;21.08;;;19.30;99.90;;;;;;5015523;28;20407;-73
2021/11/09 14:58:55;;;;;;;22.50;21.02;;;19.30;99.90;;;;;;5015704;28;20373;-73
2021/11/09 15:01:43;;;;;;;23.35;21.80;;;19.30;99.90;;;;;;5015770;28;20100;-74
2021/11/09 15:04:18;;;;;;;23.27;21.48;;;19.30;99.90;;;;;;5015464;28;20022;-74
2021/11/09 15:09:47;;;;;;;22.60;20.80;;;19.30;99.90;;;;;;5015656;28;20053;-74
2021/11/09 15:12:43;;;;;;;22.75;21.13;;;19.30;99.90;;;;;;5014136;28;20271;-75
2021/11/09 15:29:37;;;;;;;23.25;21.45;;;19.30;99.90;;;;;;4974090;28;20015;-75
2021/11/09 15:32:13;;;;;;;22.17;20.75;;;19.30;99.90;;;;;;5003708;28;20422;-74
2021/11/09 15:39:59;;;;;;;23.17;21.33;;;19.40;99.90;;;;;;5015126;28;20594;-75
2021/11/09 15:42:28;;;;;;;22.17;20.30;;;19.40;99.90;;;;;;5013731;28;20718;-75
2021/11/09 15:44:56;;;;;;;22.93;21.37;;;19.50;99.90;;;;;;5015137;28;20018;-75
2021/11/09 15:47:24;;;;;;;23.23;21.30;;;19.50;99.90;;;;;;5014701;28;20018;-75
2021/11/09 15:49:52;;;;;;;23.48;21.63;;;19.50;99.90;;;;;;5014766;28;20030;-75
2021/11/09 15:52:19;;;;;;;24.80;22.88;;;19.50;99.90;;;;;;5013158;28;20026;-74
2021/11/09 15:54:49;;;;;;;24.67;22.85;;;19.50;99.90;;;;;;5013552;28;20182;-75
2021/11/09 15:57:18;;;;;;;24.27;22.35;;;19.50;99.90;;;;;;5012988;28;20515;-75
2021/11/09 15:59:46;;;;;;;23.88;22.42;;;19.50;99.90;;;;;;5013361;28;20598;-76